Time;durP1;ratioP1;P1;durP2;ratioP2;P2;SDS_P1;SDS_P2;PMS_P1;PMS_P2;Temp;Humidity;BMP_temperature;BMP_pressure;BME280_temperature;BME280_humidity;BME280_pressure;Samples;Min_cycle;Max_cycle;Signal;HPM_P1;HPM_P2
2021/12/22 00:01:14;;;;;;;5.97;5.32;;;8.80;78.20;;;;;;5172966;27;20397;-63
2021/12/22 00:03:45;;;;;;;6.30;5.63;;;8.80;78.10;;;;;;5159602;27;20133;-61
2021/12/22 00:06:11;;;;;;;6.85;5.70;;;8.80;78.20;;;;;;5153438;27;20090;-61
2021/12/22 00:08:36;;;;;;;7.70;6.40;;;8.80;78.20;;;;;;5153085;27;20085;-63
2021/12/22 00:11:02;;;;;;;7.30;6.15;;;8.80;78.20;;;;;;5153639;27;20402;-58
2021/12/22 00:13:30;;;;;;;6.30;5.68;;;8.80;78.20;;;;;;5156392;27;20049;-64
2021/12/22 00:15:55;;;;;;;6.85;5.68;;;8.80;78.20;;;;;;5174273;27;20486;-64
2021/12/22 00:18:21;;;;;;;6.95;5.75;;;8.80;78.20;;;;;;5166342;27;20049;-64
2021/12/22 00:20:47;;;;;;;6.72;5.90;;;8.80;78.20;;;;;;5154825;27;20047;-63
2021/12/22 00:23:13;;;;;;;7.63;6.13;;;8.90;78.20;;;;;;5154205;27;20050;-60
2021/12/22 00:25:38;;;;;;;5.82;5.22;;;8.80;78.10;;;;;;5153521;27;20066;-62
2021/12/22 00:28:04;;;;;;;7.18;5.78;;;8.80;78.10;;;;;;5153813;27;20117;-64
2021/12/22 00:30:30;;;;;;;6.38;5.60;;;8.80;78.10;;;;;;5134638;27;20059;-65
2021/12/22 00:33:02;;;;;;;7.03;6.03;;;8.80;78.10;;;;;;5162427;27;20090;-61
2021/12/22 00:35:37;;;;;;;6.65;5.60;;;8.80;78.10;;;;;;5174109;27;20099;-60
2021/12/22 00:38:03;;;;;;;6.63;5.93;;;8.80;78.10;;;;;;5174403;27;20046;-63
2021/12/22 00:40:30;;;;;;;6.75;6.03;;;8.80;78.10;;;;;;5156664;27;20463;-59
2021/12/22 00:42:58;;;;;;;7.28;6.00;;;8.80;78.20;;;;;;5152938;27;20444;-62
2021/12/22 00:45:27;;;;;;;7.32;6.40;;;8.80;78.20;;;;;;5154288;27;20035;-60
2021/12/22 00:47:54;;;;;;;6.40;5.70;;;8.80;78.10;;;;;;5157198;27;20054;-59
2021/12/22 00:50:20;;;;;;;5.78;5.20;;;8.80;78.20;;;;;;5169370;27;20038;-61
2021/12/22 00:52:45;;;;;;;7.35;5.85;;;8.80;78.10;;;;;;5178525;27;20090;-59
2021/12/22 00:55:16;;;;;;;6.28;5.68;;;8.80;78.20;;;;;;5175347;27;20038;-59
2021/12/22 00:57:43;;;;;;;7.13;6.15;;;8.80;78.20;;;;;;5178533;27;20049;-60
2021/12/22 01:00:09;;;;;;;6.45;5.85;;;8.80;78.20;;;;;;5178362;27;20098;-59
2021/12/22 01:02:35;;;;;;;6.38;5.78;;;8.80;78.20;;;;;;5167986;27;20034;-58
2021/12/22 01:05:01;;;;;;;6.45;5.65;;;8.80;78.20;;;;;;5172309;27;20057;-60
2021/12/22 01:07:26;;;;;;;6.65;5.78;;;8.80;78.20;;;;;;5177720;27;20100;-60
2021/12/22 01:09:52;;;;;;;6.78;6.07;;;8.80;78.10;;;;;;5167998;27;20121;-60
2021/12/22 01:12:19;;;;;;;7.95;5.75;;;8.80;78.20;;;;;;5156717;27;20399;-60
2021/12/22 01:14:45;;;;;;;6.90;5.82;;;8.80;78.20;;;;;;5172106;27;20478;-60
2021/12/22 01:17:13;;;;;;;6.60;5.78;;;8.80;78.20;;;;;;5177273;27;20099;-61
2021/12/22 01:19:51;;;;;;;6.03;5.43;;;8.70;78.10;;;;;;5142728;27;20058;-60
2021/12/22 01:25:14;;;;;;;6.55;5.65;;;8.80;78.20;;;;;;5112767;28;20181;-62
2021/12/22 01:27:42;;;;;;;6.18;5.57;;;8.70;78.20;;;;;;5112559;28;20062;-59
2021/12/22 01:30:14;;;;;;;6.15;5.53;;;8.70;78.10;;;;;;5112663;28;20422;-60
2021/12/22 01:32:42;;;;;;;7.63;5.63;;;8.70;78.20;;;;;;5113141;28;20043;-63
2021/12/22 01:35:11;;;;;;;6.35;5.68;;;8.80;78.20;;;;;;5113023;28;20048;-63
2021/12/22 01:37:37;;;;;;;7.25;6.03;;;8.70;78.10;;;;;;5113092;28;20516;-63
2021/12/22 01:40:04;;;;;;;7.00;5.82;;;8.70;78.10;;;;;;5113068;28;20044;-58
2021/12/22 01:42:30;;;;;;;6.05;5.45;;;8.70;78.10;;;;;;5095657;28;20071;-60
2021/12/22 01:45:12;;;;;;;7.03;5.55;;;8.70;78.10;;;;;;5112402;28;20046;-60
2021/12/22 01:50:33;;;;;;;5.63;5.07;;;8.70;78.10;;;;;;5112052;28;20364;-64
2021/12/22 01:53:04;;;;;;;7.18;6.05;;;8.70;78.10;;;;;;5112785;28;20500;-62
2021/12/22 01:55:36;;;;;;;6.50;5.90;;;8.70;78.20;;;;;;5112534;28;20113;-63
2021/12/22 01:58:05;;;;;;;6.70;5.85;;;8.70;78.10;;;;;;5111630;28;20112;-60
2021/12/22 02:00:31;;;;;;;7.60;5.93;;;8.70;78.10;;;;;;5114553;27;20043;-63
2021/12/22 02:02:57;;;;;;;6.45;5.80;;;8.70;78.10;;;;;;5137005;27;20524;-58
2021/12/22 02:05:24;;;;;;;6.45;5.35;;;8.70;78.10;;;;;;5160747;27;20099;-60
2021/12/22 02:07:55;;;;;;;6.55;5.88;;;8.70;78.10;;;;;;5157185;27;20069;-63
2021/12/22 02:10:36;;;;;;;6.20;5.60;;;8.70;78.10;;;;;;5137193;27;20043;-64
2021/12/22 02:13:03;;;;;;;8.00;6.30;;;8.70;78.10;;;;;;5156048;27;20050;-62
2021/12/22 02:15:33;;;;;;;7.07;5.57;;;8.70;78.10;;;;;;5166709;27;20082;-62
2021/12/22 02:18:02;;;;;;;6.65;5.95;;;8.70;78.10;;;;;;5176674;27;20042;-63
2021/12/22 02:20:28;;;;;;;6.20;5.60;;;8.70;78.10;;;;;;5173084;27;20490;-64
2021/12/22 02:22:55;;;;;;;6.70;6.00;;;8.70;78.70;;;;;;5142800;27;20054;-62
2021/12/22 02:25:30;;;;;;;6.22;5.35;;;8.70;78.10;;;;;;5156753;27;20125;-63
2021/12/22 02:27:56;;;;;;;6.35;5.75;;;8.70;78.10;;;;;;5157601;27;20050;-63
2021/12/22 02:30:28;;;;;;;6.55;5.63;;;8.70;78.10;;;;;;5174435;27;20039;-62
2021/12/22 02:33:09;;;;;;;6.20;5.57;;;8.80;78.20;;;;;;5175841;27;20046;-60
2021/12/22 02:35:40;;;;;;;6.43;5.80;;;8.70;78.20;;;;;;5176145;27;20038;-61
2021/12/22 02:38:13;;;;;;;6.47;5.60;;;8.70;78.20;;;;;;5176246;27;20190;-58
2021/12/22 02:40:38;;;;;;;6.63;6.03;;;8.60;78.10;;;;;;5174479;27;20370;-62
2021/12/22 02:43:05;;;;;;;6.93;5.93;;;8.70;78.10;;;;;;5157048;27;20050;-59
2021/12/22 02:45:34;;;;;;;7.55;5.90;;;8.70;78.10;;;;;;5175859;27;20049;-63
2021/12/22 02:48:00;;;;;;;6.63;5.80;;;8.70;78.10;;;;;;5154980;27;20057;-63
2021/12/22 02:50:26;;;;;;;6.70;5.38;;;8.60;78.10;;;;;;5156254;27;20035;-60
2021/12/22 02:55:44;;;;;;;7.50;5.82;;;8.70;78.20;;;;;;5154969;27;20084;-62
2021/12/22 02:58:17;;;;;;;7.03;5.68;;;8.70;78.20;;;;;;5136405;27;20053;-63
2021/12/22 03:01:03;;;;;;;6.43;5.75;;;8.70;78.20;;;;;;5157320;27;20131;-60
2021/12/22 03:06:18;;;;;;;7.35;5.88;;;8.70;78.20;;;;;;5174478;27;20127;-61
2021/12/22 03:08:43;;;;;;;5.97;5.38;;;8.60;78.10;;;;;;5156303;27;20401;-62
2021/12/22 03:11:09;;;;;;;6.50;5.90;;;8.60;78.10;;;;;;5173942;27;20035;-64
2021/12/22 03:13:35;;;;;;;6.85;5.80;;;8.60;78.10;;;;;;5175309;27;20042;-63
2021/12/22 03:16:00;;;;;;;6.82;5.75;;;8.60;78.10;;;;;;5175327;27;20546;-59
2021/12/22 03:18:27;;;;;;;6.95;6.05;;;8.60;78.10;;;;;;5173478;27;20054;-63
2021/12/22 03:21:02;;;;;;;6.10;5.50;;;8.60;78.10;;;;;;5173387;27;20461;-63
2021/12/22 03:23:27;;;;;;;6.68;5.80;;;8.60;78.10;;;;;;5173412;27;20477;-64
2021/12/22 03:25:53;;;;;;;7.43;5.50;;;8.60;78.10;;;;;;5175057;27;20045;-63
2021/12/22 03:28:19;;;;;;;6.63;5.53;;;8.60;78.80;;;;;;5175406;27;20478;-63
2021/12/22 03:30:44;;;;;;;7.15;5.85;;;8.60;78.10;;;;;;5175286;27;20034;-63
2021/12/22 03:33:10;;;;;;;6.70;5.68;;;8.60;78.10;;;;;;5173622;27;20046;-64
2021/12/22 03:35:38;;;;;;;6.13;5.50;;;8.60;78.10;;;;;;5174426;27;20035;-63
2021/12/22 03:38:04;;;;;;;7.85;5.65;;;8.60;78.10;;;;;;5174823;27;20594;-63
2021/12/22 03:40:30;;;;;;;6.68;5.60;;;8.60;78.10;;;;;;5175108;27;20393;-63
2021/12/22 03:42:56;;;;;;;6.80;6.10;;;8.60;78.10;;;;;;5173889;27;20145;-62
2021/12/22 03:45:22;;;;;;;6.80;5.35;;;8.60;78.10;;;;;;5174675;27;20038;-63
2021/12/22 03:47:49;;;;;;;6.43;5.68;;;8.60;78.10;;;;;;5175099;27;20054;-64
2021/12/22 03:50:17;;;;;;;6.63;5.95;;;8.60;78.10;;;;;;5172935;27;20155;-62
2021/12/22 03:52:43;;;;;;;6.43;5.80;;;8.60;78.10;;;;;;5174189;27;20401;-63
2021/12/22 03:55:10;;;;;;;6.65;5.93;;;8.60;78.10;;;;;;5155349;27;20133;-64
2021/12/22 03:57:36;;;;;;;7.70;6.10;;;8.60;78.10;;;;;;5154178;27;20053;-63
2021/12/22 04:00:05;;;;;;;6.00;5.40;;;8.60;78.10;;;;;;5153889;27;20034;-62
2021/12/22 04:02:31;;;;;;;6.05;5.45;;;8.60;78.10;;;;;;5157512;27;20042;-62
2021/12/22 04:04:57;;;;;;;6.25;5.60;;;8.60;78.10;;;;;;5172910;27;20233;-64
2021/12/22 04:07:23;;;;;;;6.63;5.95;;;8.60;78.10;;;;;;5173701;27;20046;-60
2021/12/22 04:09:48;;;;;;;6.95;5.60;;;8.60;78.10;;;;;;5174347;27;20072;-60
2021/12/22 04:12:14;;;;;;;6.32;5.57;;;8.60;78.10;;;;;;5155242;27;20455;-59
2021/12/22 04:14:40;;;;;;;6.55;5.78;;;8.60;78.10;;;;;;5154409;27;20070;-60
2021/12/22 04:17:05;;;;;;;6.03;5.28;;;8.60;78.10;;;;;;5153825;27;20091;-62
2021/12/22 04:19:31;;;;;;;6.60;5.68;;;8.60;78.10;;;;;;5154774;27;20041;-62
2021/12/22 04:21:57;;;;;;;6.63;5.95;;;8.60;78.10;;;;;;5162035;27;20042;-60
2021/12/22 04:24:23;;;;;;;6.38;5.65;;;8.60;78.10;;;;;;5173559;27;20385;-61
2021/12/22 04:26:50;;;;;;;6.43;5.75;;;8.60;78.10;;;;;;5172421;27;20547;-61
2021/12/22 04:29:17;;;;;;;7.00;6.22;;;8.60;78.10;;;;;;5174577;27;20098;-58
2021/12/22 04:31:43;;;;;;;6.07;5.50;;;8.60;78.10;;;;;;5166696;27;20615;-59
2021/12/22 04:34:08;;;;;;;6.82;5.82;;;8.50;78.10;;;;;;5153443;27;20122;-62
2021/12/22 04:36:39;;;;;;;6.80;6.10;;;8.50;78.10;;;;;;5167438;27;20102;-60
2021/12/22 04:39:06;;;;;;;6.20;5.43;;;8.60;78.10;;;;;;5173439;27;20046;-61
2021/12/22 04:41:32;;;;;;;6.05;5.45;;;8.60;78.10;;;;;;5173863;27;20494;-59
2021/12/22 04:43:58;;;;;;;5.70;5.10;;;8.60;78.10;;;;;;5173998;27;20086;-60
2021/12/22 04:46:24;;;;;;;6.55;5.95;;;8.50;78.10;;;;;;5156108;27;20448;-59
2021/12/22 04:48:50;;;;;;;6.93;5.63;;;8.50;78.10;;;;;;5134800;27;20046;-61
2021/12/22 04:51:25;;;;;;;6.18;5.57;;;8.50;78.10;;;;;;5135555;27;20038;-61
2021/12/22 04:53:57;;;;;;;6.68;5.97;;;8.60;78.10;;;;;;5153232;27;20052;-59
2021/12/22 04:56:22;;;;;;;6.20;5.53;;;8.60;78.10;;;;;;5154015;27;20057;-60
2021/12/22 04:58:48;;;;;;;6.25;5.07;;;8.50;78.10;;;;;;5154212;27;20114;-59
2021/12/22 05:01:14;;;;;;;7.43;5.78;;;8.50;78.10;;;;;;5153116;27;20095;-62
2021/12/22 05:03:41;;;;;;;6.75;5.13;;;8.50;78.10;;;;;;5155512;27;20104;-60
2021/12/22 05:06:07;;;;;;;6.55;5.95;;;8.50;78.10;;;;;;5171506;27;20443;-64
2021/12/22 05:08:33;;;;;;;6.22;5.55;;;8.50;78.10;;;;;;5154117;27;20047;-60
2021/12/22 05:10:59;;;;;;;5.57;5.07;;;8.50;78.10;;;;;;5152344;27;20158;-62
2021/12/22 05:13:25;;;;;;;5.85;5.20;;;8.50;78.10;;;;;;5173142;27;20439;-62
2021/12/22 05:15:52;;;;;;;7.30;5.78;;;8.60;78.10;;;;;;5174089;27;20075;-61
2021/12/22 05:18:36;;;;;;;6.28;5.68;;;8.50;78.10;;;;;;5154140;27;20425;-62
2021/12/22 05:21:01;;;;;;;6.85;5.38;;;8.50;78.10;;;;;;5154003;27;20039;-61
2021/12/22 05:23:27;;;;;;;6.18;5.35;;;8.50;78.10;;;;;;5153103;27;20053;-60
2021/12/22 05:25:53;;;;;;;6.05;5.35;;;8.50;78.10;;;;;;5134291;27;20486;-61
2021/12/22 05:28:18;;;;;;;5.95;5.25;;;8.50;78.10;;;;;;5156723;27;20045;-61
2021/12/22 05:30:46;;;;;;;6.28;5.65;;;8.50;78.10;;;;;;5172259;27;20041;-61
2021/12/22 05:33:13;;;;;;;6.25;5.50;;;8.50;78.10;;;;;;5175815;27;20106;-62
2021/12/22 05:35:39;;;;;;;5.93;5.32;;;8.50;78.10;;;;;;5178232;27;20042;-61
2021/12/22 05:38:04;;;;;;;6.28;5.68;;;8.50;78.10;;;;;;5175858;27;20081;-63
2021/12/22 05:40:30;;;;;;;6.40;5.68;;;8.50;78.10;;;;;;5175354;27;20070;-62
2021/12/22 05:42:57;;;;;;;5.93;5.30;;;8.50;78.10;;;;;;5157102;27;20050;-59
2021/12/22 05:45:26;;;;;;;6.85;5.45;;;8.50;78.10;;;;;;5156897;27;20043;-64
2021/12/22 05:47:53;;;;;;;5.60;5.10;;;8.50;78.10;;;;;;5156572;27;20050;-60
2021/12/22 05:50:20;;;;;;;6.47;5.80;;;8.50;78.10;;;;;;5157619;27;20046;-63
2021/12/22 05:52:45;;;;;;;6.32;5.72;;;8.50;78.10;;;;;;5156572;27;20039;-57
2021/12/22 05:55:11;;;;;;;6.40;5.80;;;8.50;78.10;;;;;;5156285;27;20447;-62
2021/12/22 05:57:37;;;;;;;6.18;5.20;;;8.50;78.10;;;;;;5138030;27;20042;-63
2021/12/22 06:00:05;;;;;;;7.43;5.88;;;8.40;78.10;;;;;;5156659;27;20526;-63
2021/12/22 06:02:31;;;;;;;6.05;5.43;;;8.50;78.10;;;;;;5175279;27;20042;-63
2021/12/22 06:04:56;;;;;;;6.88;6.00;;;8.40;78.10;;;;;;5158600;27;20046;-63
2021/12/22 06:07:22;;;;;;;6.25;5.65;;;8.50;78.10;;;;;;5148041;27;20074;-61
2021/12/22 06:09:48;;;;;;;5.38;4.60;;;8.40;78.10;;;;;;5156034;27;20410;-63
2021/12/22 06:12:14;;;;;;;6.00;5.13;;;8.50;78.10;;;;;;5157007;27;20043;-63
2021/12/22 06:14:39;;;;;;;5.35;4.72;;;8.40;78.10;;;;;;5155621;27;20066;-63
2021/12/22 06:17:05;;;;;;;6.35;4.95;;;8.50;78.10;;;;;;5155963;27;20518;-62
2021/12/22 06:19:31;;;;;;;6.03;5.43;;;8.50;78.10;;;;;;5155987;27;20179;-62
2021/12/22 06:21:57;;;;;;;6.10;5.20;;;8.50;78.10;;;;;;5158131;27;20045;-62
2021/12/22 06:24:23;;;;;;;6.20;5.57;;;8.40;78.10;;;;;;5155696;27;20478;-59
2021/12/22 06:26:48;;;;;;;6.57;5.20;;;8.50;78.10;;;;;;5163926;27;20138;-59
2021/12/22 06:29:14;;;;;;;5.85;5.00;;;8.40;78.10;;;;;;5164462;27;20030;-61
2021/12/22 06:31:40;;;;;;;6.00;5.38;;;8.40;78.10;;;;;;5155207;27;20403;-59
2021/12/22 06:34:07;;;;;;;6.28;5.07;;;8.40;78.10;;;;;;5156515;27;20371;-61
2021/12/22 06:36:33;;;;;;;6.80;5.68;;;8.40;78.10;;;;;;5137082;27;20031;-60
2021/12/22 06:38:59;;;;;;;6.57;5.40;;;8.40;78.10;;;;;;5155274;27;20039;-61
2021/12/22 06:41:25;;;;;;;6.70;5.70;;;8.40;78.10;;;;;;5160599;27;20030;-60
2021/12/22 06:43:50;;;;;;;6.10;5.50;;;8.40;78.10;;;;;;5174152;27;20038;-59
2021/12/22 06:46:16;;;;;;;6.13;5.45;;;8.40;78.10;;;;;;5175538;27;20549;-57
2021/12/22 06:48:42;;;;;;;5.97;4.80;;;8.40;78.10;;;;;;5174370;27;20369;-60
2021/12/22 06:51:07;;;;;;;5.80;5.20;;;8.40;78.10;;;;;;5174053;27;20132;-60
2021/12/22 06:53:36;;;;;;;6.07;5.47;;;8.40;78.10;;;;;;5174825;27;20081;-59
2021/12/22 06:56:03;;;;;;;6.07;5.47;;;8.40;78.10;;;;;;5155097;27;20042;-60
2021/12/22 06:58:29;;;;;;;6.32;5.22;;;8.40;78.10;;;;;;5156205;27;20063;-62
2021/12/22 07:00:55;;;;;;;7.03;5.55;;;8.40;78.10;;;;;;5154667;27;20039;-63
2021/12/22 07:03:20;;;;;;;5.90;5.30;;;8.40;78.10;;;;;;5155666;27;20431;-58
2021/12/22 07:05:46;;;;;;;6.28;5.15;;;8.40;78.10;;;;;;5174962;27;20038;-61
2021/12/22 07:08:12;;;;;;;6.25;5.28;;;8.40;78.10;;;;;;5175406;27;20559;-59
2021/12/22 07:10:37;;;;;;;5.93;5.30;;;8.40;78.10;;;;;;5175910;27;20505;-61
2021/12/22 07:13:04;;;;;;;6.20;5.50;;;8.40;78.10;;;;;;5175338;27;20050;-59
2021/12/22 07:15:30;;;;;;;7.18;5.38;;;8.40;78.10;;;;;;5144359;27;20145;-58
2021/12/22 07:17:56;;;;;;;5.90;5.20;;;8.30;78.00;;;;;;5154448;27;20521;-58
2021/12/22 07:20:22;;;;;;;6.20;5.57;;;8.50;78.10;;;;;;5154518;27;20043;-58
2021/12/22 07:22:48;;;;;;;6.00;5.40;;;8.40;78.10;;;;;;5155854;27;20467;-58
2021/12/22 07:25:17;;;;;;;6.50;5.90;;;8.40;78.00;;;;;;5154576;27;20038;-59
2021/12/22 07:27:43;;;;;;;5.57;4.95;;;8.40;78.10;;;;;;5169753;27;20042;-59
2021/12/22 07:30:09;;;;;;;7.57;5.43;;;8.40;78.10;;;;;;5154021;27;20041;-59
2021/12/22 07:32:35;;;;;;;6.18;5.32;;;8.40;78.10;;;;;;5158465;27;20034;-58
2021/12/22 07:35:13;;;;;;;7.72;5.80;;;8.30;78.00;;;;;;5146614;27;20608;-58
2021/12/22 07:37:50;;;;;;;7.20;5.43;;;8.30;78.00;;;;;;5135706;27;20059;-58
2021/12/22 07:40:19;;;;;;;6.50;5.07;;;8.40;78.00;;;;;;5153512;27;20047;-57
2021/12/22 07:42:45;;;;;;;6.75;5.72;;;8.30;78.00;;;;;;5158895;27;20102;-60
2021/12/22 07:45:11;;;;;;;6.00;5.35;;;8.30;78.00;;;;;;5174028;27;20516;-60
2021/12/22 07:47:38;;;;;;;6.80;5.63;;;8.30;78.00;;;;;;5172812;27;20049;-64
2021/12/22 07:50:05;;;;;;;6.20;5.45;;;8.30;78.00;;;;;;5174654;27;20045;-64
2021/12/22 07:52:31;;;;;;;6.68;5.63;;;8.30;78.00;;;;;;5173061;27;20494;-63
2021/12/22 07:54:58;;;;;;;6.03;4.55;;;8.30;78.00;;;;;;5174173;27;20041;-62
2021/12/22 07:57:24;;;;;;;6.15;5.50;;;8.30;78.00;;;;;;5173248;27;20118;-64
2021/12/22 07:59:50;;;;;;;6.70;5.07;;;8.30;78.00;;;;;;5156262;27;20163;-64
2021/12/22 08:02:15;;;;;;;6.47;5.72;;;8.30;78.00;;;;;;5168934;27;20035;-63
2021/12/22 08:04:41;;;;;;;6.00;4.88;;;8.30;78.00;;;;;;5157676;27;20047;-63
2021/12/22 08:07:07;;;;;;;6.95;5.47;;;8.30;78.00;;;;;;5174026;27;20061;-63
2021/12/22 08:09:34;;;;;;;5.90;5.28;;;8.30;78.00;;;;;;5172970;27;20045;-59
2021/12/22 08:12:04;;;;;;;8.57;5.72;;;8.30;78.00;;;;;;5170067;27;20514;-62
2021/12/22 08:14:32;;;;;;;6.72;5.53;;;8.30;78.00;;;;;;5155350;27;20042;-61
2021/12/22 08:16:57;;;;;;;7.10;5.22;;;8.30;78.00;;;;;;5158798;27;20061;-62
2021/12/22 08:19:23;;;;;;;6.20;5.50;;;8.30;78.00;;;;;;5161388;27;20538;-61
2021/12/22 08:21:49;;;;;;;6.07;5.47;;;8.30;78.00;;;;;;5174432;27;20038;-63
2021/12/22 08:24:14;;;;;;;5.82;5.03;;;8.30;78.70;;;;;;5174062;27;20200;-62
2021/12/22 08:26:41;;;;;;;7.35;5.60;;;8.30;78.00;;;;;;5172589;27;20160;-63
2021/12/22 08:29:07;;;;;;;6.55;5.68;;;8.30;78.00;;;;;;5174245;27;20038;-64
2021/12/22 08:31:32;;;;;;;7.22;6.20;;;8.20;77.90;;;;;;5155842;27;20095;-62
2021/12/22 08:33:58;;;;;;;7.60;5.95;;;8.30;78.00;;;;;;5174310;27;20038;-61
2021/12/22 08:39:11;;;;;;;10.02;8.60;;;8.00;74.70;;;;;;5174201;27;20155;-63
2021/12/22 08:41:40;;;;;;;13.27;9.63;;;7.70;75.70;;;;;;5171494;27;20457;-53
2021/12/22 08:44:08;;;;;;;13.80;9.60;;;7.70;76.00;;;;;;5156835;27;20548;-58
2021/12/22 08:46:37;;;;;;;13.10;9.57;;;7.70;76.10;;;;;;5153109;27;20043;-56
2021/12/22 08:49:05;;;;;;;12.48;9.60;;;7.70;76.20;;;;;;5155017;27;20375;-56
2021/12/22 08:51:31;;;;;;;13.55;10.23;;;7.70;76.40;;;;;;5153109;27;20043;-53
2021/12/22 08:53:58;;;;;;;13.23;10.13;;;7.80;76.50;;;;;;5153043;27;20046;-57
2021/12/22 08:56:24;;;;;;;11.10;9.40;;;7.80;76.60;;;;;;5152811;27;20035;-56
2021/12/22 08:58:50;;;;;;;13.60;9.93;;;7.80;76.60;;;;;;5154072;27;20422;-58
2021/12/22 09:01:15;;;;;;;11.32;8.80;;;7.80;76.60;;;;;;5166446;27;20080;-57
2021/12/22 09:03:41;;;;;;;13.43;10.07;;;7.90;76.70;;;;;;5154871;27;20057;-60
2021/12/22 09:06:07;;;;;;;14.10;10.02;;;7.90;76.70;;;;;;5173731;27;20047;-60
2021/12/22 09:08:33;;;;;;;12.32;9.48;;;7.90;76.80;;;;;;5175475;27;20221;-57
2021/12/22 09:10:58;;;;;;;11.00;9.63;;;7.90;76.80;;;;;;5157136;27;20035;-59
2021/12/22 09:13:24;;;;;;;11.43;9.63;;;8.00;76.90;;;;;;5165292;27;20057;-56
2021/12/22 09:15:50;;;;;;;10.48;8.48;;;8.00;76.90;;;;;;5176927;27;20038;-59
2021/12/22 09:18:17;;;;;;;12.00;9.30;;;8.00;76.90;;;;;;5177667;27;20413;-59
2021/12/22 09:20:43;;;;;;;9.90;8.68;;;8.00;77.00;;;;;;5163082;27;20022;-59
2021/12/22 09:23:09;;;;;;;10.27;8.82;;;8.00;77.00;;;;;;5156890;27;20111;-60
2021/12/22 09:25:35;;;;;;;11.60;8.23;;;8.00;77.00;;;;;;5166571;27;20490;-59
2021/12/22 09:28:02;;;;;;;13.82;9.10;;;8.00;77.00;;;;;;5176508;27;20506;-50
2021/12/22 09:30:35;;;;;;;12.27;9.38;;;8.00;77.00;;;;;;5172549;27;20456;-53
2021/12/22 09:33:03;;;;;;;10.73;8.85;;;8.10;77.70;;;;;;5156759;27;20041;-58
2021/12/22 09:35:28;;;;;;;12.35;10.02;;;8.10;77.10;;;;;;5156568;27;20070;-61
2021/12/22 09:37:54;;;;;;;10.90;8.40;;;8.10;77.10;;;;;;5171146;27;20528;-63
2021/12/22 09:40:20;;;;;;;13.07;8.80;;;8.10;77.10;;;;;;5176562;27;20085;-52
2021/12/22 09:42:45;;;;;;;12.05;8.98;;;8.10;77.10;;;;;;5174024;27;20137;-59
2021/12/22 09:45:11;;;;;;;10.82;8.70;;;8.20;77.20;;;;;;5177380;27;20045;-58
2021/12/22 09:48:02;;;;;;;10.27;8.30;;;8.10;77.20;;;;;;5177193;27;20038;-65
2021/12/22 09:50:38;;;;;;;11.32;8.60;;;8.10;77.20;;;;;;5177007;27;20179;-61
2021/12/22 09:53:03;;;;;;;9.13;7.60;;;8.10;77.20;;;;;;5175504;27;20049;-60
2021/12/22 09:55:33;;;;;;;10.25;8.18;;;8.10;77.20;;;;;;5177049;27;20038;-62
2021/12/22 09:58:00;;;;;;;11.50;8.50;;;8.10;77.20;;;;;;5176987;27;20121;-55
2021/12/22 10:00:26;;;;;;;10.95;8.35;;;8.10;77.20;;;;;;5176670;27;20094;-63
2021/12/22 10:02:51;;;;;;;11.95;8.15;;;8.10;77.20;;;;;;5171496;27;20038;-57
2021/12/22 10:05:17;;;;;;;9.90;7.97;;;8.10;77.20;;;;;;5137860;27;20526;-54
2021/12/22 10:07:44;;;;;;;10.15;7.90;;;8.00;77.20;;;;;;5173434;27;20042;-61
2021/12/22 10:10:11;;;;;;;11.07;9.00;;;8.10;77.30;;;;;;5177240;27;20042;-62
2021/12/22 10:12:39;;;;;;;10.05;7.78;;;8.10;77.30;;;;;;5157583;27;20065;-52
2021/12/22 10:15:08;;;;;;;10.27;8.00;;;8.10;77.30;;;;;;5155488;27;20085;-57
2021/12/22 10:17:39;;;;;;;11.55;7.78;;;8.10;77.30;;;;;;5155694;27;20413;-59
2021/12/22 10:20:12;;;;;;;9.65;7.78;;;8.10;77.30;;;;;;5155734;27;20043;-57
2021/12/22 10:22:42;;;;;;;10.57;8.48;;;8.10;77.30;;;;;;5155438;27;20039;-63
2021/12/22 10:25:20;;;;;;;11.27;8.43;;;8.10;77.30;;;;;;5156789;27;20042;-58
2021/12/22 10:28:06;;;;;;;12.05;8.73;;;8.10;77.40;;;;;;5155495;27;20139;-61
2021/12/22 10:30:42;;;;;;;12.13;8.77;;;8.10;77.30;;;;;;5154902;27;20455;-57
2021/12/22 10:33:10;;;;;;;10.80;8.10;;;8.10;77.40;;;;;;5156851;27;20447;-61
2021/12/22 10:35:38;;;;;;;11.82;8.38;;;8.10;77.40;;;;;;5152398;27;20057;-63
2021/12/22 10:38:05;;;;;;;10.23;8.23;;;8.10;78.10;;;;;;5148844;27;20053;-61
2021/12/22 10:40:37;;;;;;;9.30;7.25;;;8.10;77.40;;;;;;5155151;27;20042;-62
2021/12/22 10:43:04;;;;;;;9.85;7.88;;;8.10;77.40;;;;;;5155062;27;20479;-67
2021/12/22 10:45:34;;;;;;;10.25;7.65;;;8.10;77.40;;;;;;5155970;27;20044;-69
2021/12/22 10:50:58;;;;;;;10.18;8.15;;;8.10;77.40;;;;;;5155345;27;20431;-65
2021/12/22 10:53:24;;;;;;;9.30;7.68;;;8.10;77.40;;;;;;5173714;27;20070;-70
2021/12/22 10:55:56;;;;;;;9.63;7.90;;;8.10;77.40;;;;;;5156794;27;20093;-72
2021/12/22 10:58:29;;;;;;;9.45;7.82;;;8.10;77.50;;;;;;5175766;27;20094;-60
2021/12/22 11:01:06;;;;;;;10.48;7.43;;;8.10;77.50;;;;;;5176109;27;20034;-58
2021/12/22 11:03:53;;;;;;;9.77;7.65;;;8.10;77.40;;;;;;5155400;27;20119;-56
2021/12/22 11:06:24;;;;;;;10.38;8.00;;;8.10;77.40;;;;;;5175466;27;20054;-60
2021/12/22 11:08:59;;;;;;;10.23;7.90;;;8.10;77.40;;;;;;5175967;27;20046;-69
2021/12/22 11:11:37;;;;;;;8.95;7.68;;;8.10;77.50;;;;;;5175272;27;20098;-70
2021/12/22 11:14:13;;;;;;;8.98;8.00;;;8.10;77.50;;;;;;5175581;27;20095;-63
2021/12/22 11:16:56;;;;;;;10.48;7.88;;;8.10;77.50;;;;;;5175175;27;20044;-67
2021/12/22 11:19:23;;;;;;;10.20;7.82;;;8.10;77.40;;;;;;5174593;27;20406;-65
2021/12/22 11:22:13;;;;;;;10.18;7.55;;;8.10;77.50;;;;;;5175594;27;20038;-70
2021/12/22 11:24:42;;;;;;;12.05;7.97;;;8.10;77.40;;;;;;5175103;27;20773;-71
2021/12/22 11:27:09;;;;;;;9.80;7.88;;;8.10;77.50;;;;;;5175193;27;20090;-71
2021/12/22 11:29:37;;;;;;;9.55;7.43;;;8.10;77.50;;;;;;5174544;27;20038;-65
2021/12/22 11:32:05;;;;;;;9.80;7.80;;;8.10;77.50;;;;;;5155767;27;20042;-68
2021/12/22 11:34:34;;;;;;;8.63;7.40;;;8.10;77.50;;;;;;5163337;27;20114;-72
2021/12/22 11:37:02;;;;;;;10.68;7.60;;;8.10;77.50;;;;;;5135673;27;20058;-72
2021/12/22 11:39:30;;;;;;;9.80;7.45;;;8.10;77.50;;;;;;5153989;27;20399;-65
2021/12/22 11:42:02;;;;;;;8.30;7.15;;;8.10;77.50;;;;;;5172011;27;20086;-59
2021/12/22 11:44:30;;;;;;;9.65;7.57;;;8.10;77.50;;;;;;5174789;27;20129;-56
2021/12/22 11:46:59;;;;;;;8.35;7.00;;;8.10;77.50;;;;;;5156274;27;20083;-69
2021/12/22 11:49:27;;;;;;;9.70;7.63;;;8.10;77.50;;;;;;5174241;27;20046;-58
2021/12/22 11:51:53;;;;;;;9.18;7.35;;;8.10;77.50;;;;;;5174797;27;20042;-65
2021/12/22 11:54:25;;;;;;;9.40;6.80;;;8.10;77.50;;;;;;5174799;27;20034;-64
2021/12/22 11:56:53;;;;;;;10.45;7.40;;;8.10;77.50;;;;;;5174664;27;20453;-67
2021/12/22 11:59:30;;;;;;;9.98;7.28;;;8.20;77.50;;;;;;5174532;27;20081;-62
2021/12/22 12:02:14;;;;;;;9.60;7.00;;;8.10;77.50;;;;;;5174725;27;20053;-70
2021/12/22 12:04:40;;;;;;;10.45;7.20;;;8.10;77.40;;;;;;5174332;27;20124;-71
2021/12/22 12:07:06;;;;;;;8.60;7.22;;;8.10;77.40;;;;;;5174232;27;20441;-71
2021/12/22 12:09:31;;;;;;;8.00;6.60;;;8.10;77.50;;;;;;5174408;27;20049;-66
2021/12/22 12:11:58;;;;;;;8.85;7.30;;;8.10;77.50;;;;;;5174957;27;20067;-63
2021/12/22 12:14:35;;;;;;;8.27;7.22;;;8.10;77.50;;;;;;5174488;27;20126;-59
2021/12/22 12:23:21;;;;;;;8.88;6.82;;;8.10;77.50;;;;;;5174364;27;20042;-56
2021/12/22 12:25:47;;;;;;;7.97;6.70;;;8.10;77.50;;;;;;5174535;27;20129;-60
2021/12/22 12:28:18;;;;;;;9.45;6.97;;;8.10;77.50;;;;;;5174378;27;20137;-70
2021/12/22 12:30:54;;;;;;;9.00;6.85;;;8.20;77.50;;;;;;5172948;27;20095;-62
2021/12/22 12:33:20;;;;;;;9.23;7.18;;;8.10;77.50;;;;;;5174355;27;20038;-63
2021/12/22 12:35:53;;;;;;;8.18;6.88;;;8.10;77.50;;;;;;5174565;27;20513;-60
2021/12/22 12:38:23;;;;;;;8.40;6.55;;;8.10;77.50;;;;;;5155666;27;20035;-64
2021/12/22 12:40:57;;;;;;;7.13;6.43;;;8.10;77.50;;;;;;5134343;27;20061;-72
2021/12/22 12:43:44;;;;;;;8.93;6.72;;;8.10;77.50;;;;;;5157299;27;20099;-71
2021/12/22 12:46:19;;;;;;;8.23;7.15;;;8.10;77.40;;;;;;5157771;27;20050;-69
2021/12/22 12:48:52;;;;;;;9.02;7.28;;;8.20;77.50;;;;;;5157504;27;20053;-71
2021/12/22 12:51:30;;;;;;;8.55;6.82;;;8.10;77.50;;;;;;5157811;27;20054;-60
2021/12/22 12:54:09;;;;;;;8.90;7.03;;;8.10;77.50;;;;;;5157118;27;20034;-61
2021/12/22 12:56:48;;;;;;;8.05;6.53;;;8.10;77.50;;;;;;5158305;27;20035;-57
2021/12/22 12:59:17;;;;;;;8.15;6.22;;;8.10;77.50;;;;;;5158494;27;20043;-58
2021/12/22 13:01:46;;;;;;;8.43;6.20;;;8.10;77.50;;;;;;5158380;27;20046;-59
2021/12/22 13:04:29;;;;;;;8.05;6.65;;;8.10;77.50;;;;;;5158664;27;20386;-57
2021/12/22 13:07:20;;;;;;;9.23;6.72;;;8.20;77.50;;;;;;5158360;27;20066;-72
2021/12/22 13:10:03;;;;;;;8.23;6.93;;;8.10;78.10;;;;;;5157492;27;20387;-68
2021/12/22 13:17:55;;;;;;;8.15;6.43;;;8.10;77.50;;;;;;5157805;27;20050;-57
2021/12/22 13:20:28;;;;;;;7.35;6.40;;;8.10;77.50;;;;;;5139218;27;20038;-57
2021/12/22 13:22:57;;;;;;;8.65;6.50;;;8.10;77.50;;;;;;5157796;27;20356;-61
2021/12/22 13:25:33;;;;;;;6.47;5.82;;;8.10;77.50;;;;;;5157898;27;20110;-67
2021/12/22 13:27:58;;;;;;;6.90;6.20;;;8.20;77.50;;;;;;5157259;27;20051;-66
2021/12/22 13:30:33;;;;;;;8.65;6.88;;;8.10;77.50;;;;;;5157401;27;20084;-61